Terminal Aerodrome Forecast
Issued by NWS

Home | Current Version | Previous Version | Text Only | Print | Product List | Glossary On
Versions: 1 2 3 4 5 6 7 8 9 10 11 12
943
FTUS46 KHNX 031727
TAFBFL
TAF
KBFL 031727Z 0318/0418 VRB05KT P6SM SCT200
     FM032100 28009KT P6SM FEW120 BKN250
     FM040300 35011KT P6SM BKN200
     FM040700 02005KT P6SM BKN200=

USA.gov is the U.S. government's official web portal to all federal, state and local government web resources and services.